sensor_id;sensor_type;location;lat;lon;timestamp;pressure;altitude;pressure_sealevel;temperature;humidity
48872;BME280;36154;51.674;7.824;2024-03-02T00:02:06;99393.53;;;20.44;46.36
48872;BME280;36154;51.674;7.824;2024-03-02T00:04:32;99399.59;;;20.43;46.35
48872;BME280;36154;51.674;7.824;2024-03-02T00:06:57;99395.28;;;20.44;46.18
48872;BME280;36154;51.674;7.824;2024-03-02T00:09:22;99402.19;;;20.43;46.38
48872;BME280;36154;51.674;7.824;2024-03-02T00:11:48;99390.09;;;20.44;46.29
48872;BME280;36154;51.674;7.824;2024-03-02T00:14:14;99391.00;;;20.43;46.33
48872;BME280;36154;51.674;7.824;2024-03-02T00:16:40;99400.47;;;20.44;46.29
48872;BME280;36154;51.674;7.824;2024-03-02T00:19:06;99397.94;;;20.42;46.35
48872;BME280;36154;51.674;7.824;2024-03-02T00:21:32;99403.03;;;20.44;46.34
48872;BME280;36154;51.674;7.824;2024-03-02T00:23:58;99391.00;;;20.43;46.28
48872;BME280;36154;51.674;7.824;2024-03-02T00:26:25;99398.78;;;20.43;46.25
48872;BME280;36154;51.674;7.824;2024-03-02T00:28:54;99402.28;;;20.42;46.33
48872;BME280;36154;51.674;7.824;2024-03-02T00:31:22;99405.78;;;20.41;46.20
48872;BME280;36154;51.674;7.824;2024-03-02T00:33:48;99410.94;;;20.41;46.29
48872;BME280;36154;51.674;7.824;2024-03-02T00:36:22;99411.78;;;20.41;46.22
48872;BME280;36154;51.674;7.824;2024-03-02T00:38:51;99405.78;;;20.41;46.40
48872;BME280;36154;51.674;7.824;2024-03-02T00:41:25;99403.19;;;20.41;46.22
48872;BME280;36154;51.674;7.824;2024-03-02T00:46:33;99390.25;;;20.41;46.39
48872;BME280;36154;51.674;7.824;2024-03-02T00:49:04;99398.91;;;20.40;46.43
48872;BME280;36154;51.674;7.824;2024-03-02T00:51:31;99388.56;;;20.40;46.26
48872;BME280;36154;51.674;7.824;2024-03-02T00:54:01;99397.25;;;20.39;46.49
48872;BME280;36154;51.674;7.824;2024-03-02T00:56:29;99403.25;;;20.39;46.36
48872;BME280;36154;51.674;7.824;2024-03-02T00:58:55;99398.91;;;20.40;46.27
48872;BME280;36154;51.674;7.824;2024-03-02T01:01:20;99394.66;;;20.39;46.28
48872;BME280;36154;51.674;7.824;2024-03-02T01:03:45;99392.09;;;20.39;46.25
48872;BME280;36154;51.674;7.824;2024-03-02T01:06:11;99392.09;;;20.39;46.18
48872;BME280;36154;51.674;7.824;2024-03-02T01:08:37;99397.25;;;20.39;46.22
48872;BME280;36154;51.674;7.824;2024-03-02T01:11:02;99386.91;;;20.39;46.25
48872;BME280;36154;51.674;7.824;2024-03-02T01:13:28;99386.06;;;20.38;46.28
48872;BME280;36154;51.674;7.824;2024-03-02T01:15:54;99385.16;;;20.39;46.27
48872;BME280;36154;51.674;7.824;2024-03-02T01:18:19;99386.06;;;20.38;46.15
48872;BME280;36154;51.674;7.824;2024-03-02T01:20:44;99385.22;;;20.38;46.13
48872;BME280;36154;51.674;7.824;2024-03-02T01:23:10;99387.75;;;20.39;46.35
48872;BME280;36154;51.674;7.824;2024-03-02T01:25:35;99381.75;;;20.39;46.28
48872;BME280;36154;51.674;7.824;2024-03-02T01:28:01;99374.88;;;20.38;46.10
48872;BME280;36154;51.674;7.824;2024-03-02T01:30:26;99370.53;;;20.38;46.30
48872;BME280;36154;51.674;7.824;2024-03-02T01:32:52;99361.94;;;20.38;46.31
48872;BME280;36154;51.674;7.824;2024-03-02T01:35:17;99369.69;;;20.38;46.22
48872;BME280;36154;51.674;7.824;2024-03-02T01:37:42;99363.69;;;20.37;46.29
48872;BME280;36154;51.674;7.824;2024-03-02T01:40:08;99359.34;;;20.38;46.27
48872;BME280;36154;51.674;7.824;2024-03-02T01:42:38;99352.53;;;20.37;46.32
48872;BME280;36154;51.674;7.824;2024-03-02T01:45:08;99352.53;;;20.37;46.23
48872;BME280;36154;51.674;7.824;2024-03-02T01:47:34;99344.78;;;20.37;46.12
48872;BME280;36154;51.674;7.824;2024-03-02T01:50:02;99337.00;;;20.37;46.21
48872;BME280;36154;51.674;7.824;2024-03-02T01:52:28;99342.19;;;20.37;46.21
48872;BME280;36154;51.674;7.824;2024-03-02T01:54:53;99339.59;;;20.37;46.25
48872;BME280;36154;51.674;7.824;2024-03-02T01:57:18;99340.50;;;20.36;46.25
48872;BME280;36154;51.674;7.824;2024-03-02T01:59:45;99335.31;;;20.36;46.23
48872;BME280;36154;51.674;7.824;2024-03-02T02:02:12;99330.16;;;20.36;46.00
48872;BME280;36154;51.674;7.824;2024-03-02T02:04:38;99335.31;;;20.36;46.17
48872;BME280;36154;51.674;7.824;2024-03-02T02:07:04;99324.16;;;20.35;46.09
48872;BME280;36154;51.674;7.824;2024-03-02T02:09:29;99324.97;;;20.36;46.18
48872;BME280;36154;51.674;7.824;2024-03-02T02:11:54;99319.81;;;20.36;46.18
48872;BME280;36154;51.674;7.824;2024-03-02T02:14:19;99328.47;;;20.35;46.15
48872;BME280;36154;51.674;7.824;2024-03-02T02:16:45;99322.47;;;20.34;46.15
48872;BME280;36154;51.674;7.824;2024-03-02T02:19:11;99324.97;;;20.36;46.29
48872;BME280;36154;51.674;7.824;2024-03-02T02:21:36;99323.28;;;20.35;46.20
48872;BME280;36154;51.674;7.824;2024-03-02T02:24:01;99321.56;;;20.35;46.20
48872;BME280;36154;51.674;7.824;2024-03-02T02:26:29;99314.69;;;20.34;46.24
48872;BME280;36154;51.674;7.824;2024-03-02T02:28:54;99316.47;;;20.34;46.15
48872;BME280;36154;51.674;7.824;2024-03-02T02:31:20;99313.88;;;20.34;46.15
48872;BME280;36154;51.674;7.824;2024-03-02T02:33:45;99316.47;;;20.34;46.16
48872;BME280;36154;51.674;7.824;2024-03-02T02:36:10;99320.78;;;20.33;46.11
48872;BME280;36154;51.674;7.824;2024-03-02T02:38:43;99309.59;;;20.33;46.03
48872;BME280;36154;51.674;7.824;2024-03-02T02:41:09;99314.78;;;20.33;46.11
48872;BME280;36154;51.674;7.824;2024-03-02T02:43:34;99315.59;;;20.33;46.30
48872;BME280;36154;51.674;7.824;2024-03-02T02:45:59;99317.34;;;20.33;46.09
48872;BME280;36154;51.674;7.824;2024-03-02T02:48:25;99307.00;;;20.33;46.12
48872;BME280;36154;51.674;7.824;2024-03-02T02:50:50;99309.59;;;20.33;46.06
48872;BME280;36154;51.674;7.824;2024-03-02T02:53:16;99314.78;;;20.33;46.27
48872;BME280;36154;51.674;7.824;2024-03-02T02:55:41;99315.66;;;20.31;46.19
48872;BME280;36154;51.674;7.824;2024-03-02T02:58:11;99317.34;;;20.33;46.21
48872;BME280;36154;51.674;7.824;2024-03-02T03:00:36;99313.94;;;20.32;46.26
48872;BME280;36154;51.674;7.824;2024-03-02T03:03:01;99307.09;;;20.31;46.34
48872;BME280;36154;51.674;7.824;2024-03-02T03:05:27;99307.91;;;20.31;46.16
48872;BME280;36154;51.674;7.824;2024-03-02T03:07:52;99313.09;;;20.31;46.77
48872;BME280;36154;51.674;7.824;2024-03-02T03:10:18;99305.31;;;20.31;46.18
48872;BME280;36154;51.674;7.824;2024-03-02T03:12:43;99300.16;;;20.31;46.22
48872;BME280;36154;51.674;7.824;2024-03-02T03:15:09;99300.16;;;20.31;46.37
48872;BME280;36154;51.674;7.824;2024-03-02T03:17:35;99297.56;;;20.31;46.15
48872;BME280;36154;51.674;7.824;2024-03-02T03:20:02;99297.56;;;20.31;46.26
48872;BME280;36154;51.674;7.824;2024-03-02T03:22:29;99293.31;;;20.30;46.19
48872;BME280;36154;51.674;7.824;2024-03-02T03:24:54;99305.31;;;20.31;46.33
48872;BME280;36154;51.674;7.824;2024-03-02T03:27:19;99311.44;;;20.30;46.29
48872;BME280;36154;51.674;7.824;2024-03-02T03:29:45;99312.25;;;20.31;46.12
48872;BME280;36154;51.674;7.824;2024-03-02T03:32:10;99310.59;;;20.30;46.11
48872;BME280;36154;51.674;7.824;2024-03-02T03:34:35;99306.25;;;20.30;46.17
48872;BME280;36154;51.674;7.824;2024-03-02T03:37:01;99307.16;;;20.29;46.08
48872;BME280;36154;51.674;7.824;2024-03-02T03:39:27;99300.25;;;20.30;46.05
48872;BME280;36154;51.674;7.824;2024-03-02T03:41:53;99295.09;;;20.30;46.16
48872;BME280;36154;51.674;7.824;2024-03-02T03:44:18;99301.09;;;20.30;45.78
48872;BME280;36154;51.674;7.824;2024-03-02T03:46:44;99297.66;;;20.30;46.10
48872;BME280;36154;51.674;7.824;2024-03-02T03:49:09;99294.22;;;20.29;46.25
48872;BME280;36154;51.674;7.824;2024-03-02T03:51:34;99299.41;;;20.29;46.02
48872;BME280;36154;51.674;7.824;2024-03-02T03:54:00;99297.66;;;20.30;46.26
48872;BME280;36154;51.674;7.824;2024-03-02T03:56:25;99303.69;;;20.30;46.21
48872;BME280;36154;51.674;7.824;2024-03-02T03:58:51;99302.06;;;20.28;46.13
48872;BME280;36154;51.674;7.824;2024-03-02T04:01:16;99302.06;;;20.28;46.26
48872;BME280;36154;51.674;7.824;2024-03-02T04:03:41;99303.75;;;20.29;46.19
48872;BME280;36154;51.674;7.824;2024-03-02T04:06:06;99301.97;;;20.29;46.08
48872;BME280;36154;51.674;7.824;2024-03-02T04:08:32;99315.91;;;20.27;46.14
48872;BME280;36154;51.674;7.824;2024-03-02T04:10:57;99316.75;;;20.27;46.18
48872;BME280;36154;51.674;7.824;2024-03-02T04:13:22;99325.34;;;20.28;46.26
48872;BME280;36154;51.674;7.824;2024-03-02T04:15:48;99316.75;;;20.27;46.05
48872;BME280;36154;51.674;7.824;2024-03-02T04:18:13;99321.91;;;20.27;46.17
48872;BME280;36154;51.674;7.824;2024-03-02T04:20:38;99323.69;;;20.27;46.15
48872;BME280;36154;51.674;7.824;2024-03-02T04:23:03;99316.75;;;20.27;46.00
48872;BME280;36154;51.674;7.824;2024-03-02T04:25:29;99319.34;;;20.27;46.12
48872;BME280;36154;51.674;7.824;2024-03-02T04:27:54;99315.91;;;20.27;46.10
48872;BME280;36154;51.674;7.824;2024-03-02T04:30:19;99324.50;;;20.27;46.18
48872;BME280;36154;51.674;7.824;2024-03-02T04:32:45;99332.25;;;20.27;45.95
48872;BME280;36154;51.674;7.824;2024-03-02T04:35:12;99324.59;;;20.26;46.07
48872;BME280;36154;51.674;7.824;2024-03-02T04:37:37;99327.09;;;20.27;46.15
48872;BME280;36154;51.674;7.824;2024-03-02T04:40:03;99323.75;;;20.25;45.94
48872;BME280;36154;51.674;7.824;2024-03-02T04:42:29;99325.41;;;20.26;45.97
48872;BME280;36154;51.674;7.824;2024-03-02T04:44:54;99324.59;;;20.26;45.33
48872;BME280;36154;51.674;7.824;2024-03-02T04:47:19;99320.22;;;20.26;46.21
48872;BME280;36154;51.674;7.824;2024-03-02T04:49:44;99334.09;;;20.25;46.07
48872;BME280;36154;51.674;7.824;2024-03-02T04:52:10;99335.75;;;20.26;46.04
48872;BME280;36154;51.674;7.824;2024-03-02T04:54:35;99335.81;;;20.25;46.08
48872;BME280;36154;51.674;7.824;2024-03-02T04:57:20;99340.09;;;20.26;46.13
48872;BME280;36154;51.674;7.824;2024-03-02T04:59:45;99352.19;;;20.25;46.40
48872;BME280;36154;51.674;7.824;2024-03-02T05:02:11;99349.63;;;20.25;46.14
48872;BME280;36154;51.674;7.824;2024-03-02T05:04:39;99356.50;;;20.25;46.12
48872;BME280;36154;51.674;7.824;2024-03-02T05:07:04;99354.78;;;20.25;46.09
48872;BME280;36154;51.674;7.824;2024-03-02T05:09:29;99349.63;;;20.25;45.94
48872;BME280;36154;51.674;7.824;2024-03-02T05:11:55;99353.09;;;20.24;46.46
48872;BME280;36154;51.674;7.824;2024-03-02T05:14:39;99359.09;;;20.25;46.01
48872;BME280;36154;51.674;7.824;2024-03-02T05:17:04;99352.28;;;20.24;45.96
48872;BME280;36154;51.674;7.824;2024-03-02T05:19:29;99351.34;;;20.25;46.11
48872;BME280;36154;51.674;7.824;2024-03-02T05:21:55;99344.59;;;20.22;46.00
48872;BME280;36154;51.674;7.824;2024-03-02T05:24:20;99347.09;;;20.24;46.09
48872;BME280;36154;51.674;7.824;2024-03-02T05:26:45;99348.84;;;20.23;46.01
48872;BME280;36154;51.674;7.824;2024-03-02T05:29:10;99358.28;;;20.24;46.46
48872;BME280;36154;51.674;7.824;2024-03-02T05:31:36;99357.50;;;20.22;46.02
48872;BME280;36154;51.674;7.824;2024-03-02T05:34:01;99360.09;;;20.22;46.14
48872;BME280;36154;51.674;7.824;2024-03-02T05:36:26;99365.28;;;20.22;46.15
48872;BME280;36154;51.674;7.824;2024-03-02T05:38:52;99363.59;;;20.21;46.07
48872;BME280;36154;51.674;7.824;2024-03-02T05:41:17;99372.13;;;20.23;46.03
48872;BME280;36154;51.674;7.824;2024-03-02T05:43:42;99379.09;;;20.21;46.13
48872;BME280;36154;51.674;7.824;2024-03-02T05:46:08;99385.97;;;20.22;46.09
48872;BME280;36154;51.674;7.824;2024-03-02T05:48:33;99385.13;;;20.22;46.16
48872;BME280;36154;51.674;7.824;2024-03-02T05:50:58;99384.28;;;20.21;46.01
48872;BME280;36154;51.674;7.824;2024-03-02T05:53:23;99384.28;;;20.21;46.15
48872;BME280;36154;51.674;7.824;2024-03-02T05:55:49;99379.09;;;20.21;45.97
48872;BME280;36154;51.674;7.824;2024-03-02T05:58:18;99386.84;;;20.21;46.15
48872;BME280;36154;51.674;7.824;2024-03-02T06:01:03;99386.94;;;20.20;46.05
48872;BME280;36154;51.674;7.824;2024-03-02T06:03:28;99374.84;;;20.20;46.12
48872;BME280;36154;51.674;7.824;2024-03-02T06:05:54;99372.28;;;20.20;45.96
48872;BME280;36154;51.674;7.824;2024-03-02T06:08:19;99382.63;;;20.20;46.10
48872;BME280;36154;51.674;7.824;2024-03-02T06:10:47;99382.63;;;20.20;46.02
48872;BME280;36154;51.674;7.824;2024-03-02T06:13:12;99385.19;;;20.20;45.95
48872;BME280;36154;51.674;7.824;2024-03-02T06:15:37;99382.63;;;20.20;46.04
48872;BME280;36154;51.674;7.824;2024-03-02T06:18:03;99392.09;;;20.20;46.02
48872;BME280;36154;51.674;7.824;2024-03-02T06:20:28;99391.19;;;20.21;46.00
48872;BME280;36154;51.674;7.824;2024-03-02T06:22:56;99398.13;;;20.20;46.09
48872;BME280;36154;51.674;7.824;2024-03-02T06:25:21;99395.63;;;20.19;45.96
48872;BME280;36154;51.674;7.824;2024-03-02T06:27:46;99400.72;;;20.20;46.09
48872;BME280;36154;51.674;7.824;2024-03-02T06:30:12;99399.03;;;20.19;46.06
48872;BME280;36154;51.674;7.824;2024-03-02T06:32:37;99401.63;;;20.19;45.97
48872;BME280;36154;51.674;7.824;2024-03-02T06:35:03;99397.28;;;20.20;46.04
48872;BME280;36154;51.674;7.824;2024-03-02T06:37:29;99401.63;;;20.19;46.13
48872;BME280;36154;51.674;7.824;2024-03-02T06:39:55;99395.63;;;20.19;46.11
48872;BME280;36154;51.674;7.824;2024-03-02T06:42:20;99405.97;;;20.19;46.00
48872;BME280;36154;51.674;7.824;2024-03-02T06:44:45;99406.78;;;20.19;45.84
48872;BME280;36154;51.674;7.824;2024-03-02T06:47:10;99405.09;;;20.18;45.82
48872;BME280;36154;51.674;7.824;2024-03-02T06:49:36;99405.97;;;20.19;46.04
48872;BME280;36154;51.674;7.824;2024-03-02T06:52:02;99408.53;;;20.19;45.88
48872;BME280;36154;51.674;7.824;2024-03-02T06:54:27;99410.28;;;20.18;46.01
48872;BME280;36154;51.674;7.824;2024-03-02T06:56:52;99405.97;;;20.19;46.06
48872;BME280;36154;51.674;7.824;2024-03-02T06:59:17;99408.63;;;20.17;45.99
48872;BME280;36154;51.674;7.824;2024-03-02T07:01:43;99410.28;;;20.18;45.90
48872;BME280;36154;51.674;7.824;2024-03-02T07:04:09;99411.97;;;20.19;45.82
48872;BME280;36154;51.674;7.824;2024-03-02T07:06:34;99410.28;;;20.18;46.01
48872;BME280;36154;51.674;7.824;2024-03-02T07:08:59;99399.09;;;20.18;45.95
48872;BME280;36154;51.674;7.824;2024-03-02T07:11:24;99411.97;;;20.19;45.88
48872;BME280;36154;51.674;7.824;2024-03-02T07:13:49;99410.28;;;20.18;45.90
48872;BME280;36154;51.674;7.824;2024-03-02T07:16:15;99416.31;;;20.19;45.60
48872;BME280;36154;51.674;7.824;2024-03-02T07:18:54;99414.53;;;20.19;45.86
48872;BME280;36154;51.674;7.824;2024-03-02T07:21:20;99408.53;;;20.19;45.96
48872;BME280;36154;51.674;7.824;2024-03-02T07:23:47;99416.31;;;20.19;45.84
48872;BME280;36154;51.674;7.824;2024-03-02T07:26:12;99411.13;;;20.19;45.82
48872;BME280;36154;51.674;7.824;2024-03-02T07:28:37;99414.53;;;20.19;45.95
48872;BME280;36154;51.674;7.824;2024-03-02T07:31:04;99411.97;;;20.19;45.86
48872;BME280;36154;51.674;7.824;2024-03-02T07:33:30;99412.78;;;20.20;45.83
48872;BME280;36154;51.674;7.824;2024-03-02T07:35:56;99425.66;;;20.21;46.00
48872;BME280;36154;51.674;7.824;2024-03-02T07:38:23;99428.31;;;20.20;45.81
48872;BME280;36154;51.674;7.824;2024-03-02T07:40:51;99429.16;;;20.20;45.74
48872;BME280;36154;51.674;7.824;2024-03-02T07:43:17;99431.75;;;20.20;45.87
48872;BME280;36154;51.674;7.824;2024-03-02T07:45:43;99436.00;;;20.21;45.94
48872;BME280;36154;51.674;7.824;2024-03-02T07:48:08;99434.34;;;20.20;45.73
48872;BME280;36154;51.674;7.824;2024-03-02T07:50:33;99429.16;;;20.20;45.94
48872;BME280;36154;51.674;7.824;2024-03-02T07:53:00;99435.16;;;20.21;45.87
48872;BME280;36154;51.674;7.824;2024-03-02T07:55:26;99446.34;;;20.21;45.92
48872;BME280;36154;51.674;7.824;2024-03-02T07:57:51;99446.34;;;20.21;45.84
48872;BME280;36154;51.674;7.824;2024-03-02T08:00:16;99440.34;;;20.21;45.95
48872;BME280;36154;51.674;7.824;2024-03-02T08:02:42;99458.38;;;20.22;46.10
48872;BME280;36154;51.674;7.824;2024-03-02T08:05:08;99449.72;;;20.23;46.48
48872;BME280;36154;51.674;7.824;2024-03-02T08:07:34;99456.53;;;20.24;46.74
48872;BME280;36154;51.674;7.824;2024-03-02T08:09:59;99458.22;;;20.25;46.78
48872;BME280;36154;51.674;7.824;2024-03-02T08:12:24;99456.47;;;20.26;46.81
48872;BME280;36154;51.674;7.824;2024-03-02T08:14:49;99453.06;;;20.25;46.73
48872;BME280;36154;51.674;7.824;2024-03-02T08:17:15;99457.38;;;20.25;46.84
48872;BME280;36154;51.674;7.824;2024-03-02T08:19:40;99459.06;;;20.26;46.72
48872;BME280;36154;51.674;7.824;2024-03-02T08:22:06;99459.06;;;20.26;46.91
48872;BME280;36154;51.674;7.824;2024-03-02T08:24:32;99455.59;;;20.27;46.84
48872;BME280;36154;51.674;7.824;2024-03-02T08:26:59;99453.81;;;20.27;46.90
48872;BME280;36154;51.674;7.824;2024-03-02T08:29:24;99451.22;;;20.27;47.09
48872;BME280;36154;51.674;7.824;2024-03-02T08:31:50;99457.25;;;20.28;47.18
48872;BME280;36154;51.674;7.824;2024-03-02T08:34:15;99459.75;;;20.29;47.20
48872;BME280;36154;51.674;7.824;2024-03-02T08:36:40;99459.81;;;20.28;47.41
48872;BME280;36154;51.674;7.824;2024-03-02T08:39:07;99459.75;;;20.29;47.49
48872;BME280;36154;51.674;7.824;2024-03-02T08:41:40;99462.34;;;20.29;47.57
48872;BME280;36154;51.674;7.824;2024-03-02T08:44:06;99473.56;;;20.30;46.61
48872;BME280;36154;51.674;7.824;2024-03-02T08:46:31;99472.88;;;20.25;41.90
48872;BME280;36154;51.674;7.824;2024-03-02T08:48:56;99469.97;;;20.13;39.53
48872;BME280;36154;51.674;7.824;2024-03-02T08:51:22;99463.91;;;19.96;37.85
48872;BME280;36154;51.674;7.824;2024-03-02T08:53:47;99469.94;;;19.75;36.89
48872;BME280;36154;51.674;7.824;2024-03-02T08:56:12;99479.38;;;19.56;36.42
48872;BME280;36154;51.674;7.824;2024-03-02T08:58:38;99470.69;;;19.38;36.17
48872;BME280;36154;51.674;7.824;2024-03-02T09:01:03;99475.72;;;19.20;36.01
48872;BME280;36154;51.674;7.824;2024-03-02T09:03:29;99474.66;;;19.04;35.95
48872;BME280;36154;51.674;7.824;2024-03-02T09:05:54;99477.81;;;18.90;35.94
48872;BME280;36154;51.674;7.824;2024-03-02T09:08:20;99473.22;;;18.76;36.07
48872;BME280;36154;51.674;7.824;2024-03-02T09:10:45;99478.69;;;18.67;36.77
48872;BME280;36154;51.674;7.824;2024-03-02T09:13:10;99493.38;;;18.65;37.62
48872;BME280;36154;51.674;7.824;2024-03-02T09:15:36;99488.19;;;18.67;38.62
48872;BME280;36154;51.674;7.824;2024-03-02T09:18:03;99485.41;;;18.71;39.47
48872;BME280;36154;51.674;7.824;2024-03-02T09:20:28;99494.69;;;18.77;40.17
48872;BME280;36154;51.674;7.824;2024-03-02T09:22:53;99497.09;;;18.81;40.49
48872;BME280;36154;51.674;7.824;2024-03-02T09:25:18;99498.63;;;18.86;40.54
48872;BME280;36154;51.674;7.824;2024-03-02T09:27:44;99495.88;;;18.90;40.92
48872;BME280;36154;51.674;7.824;2024-03-02T09:30:09;99501.63;;;18.97;41.05
48872;BME280;36154;51.674;7.824;2024-03-02T09:32:36;99492.88;;;19.01;41.18
48872;BME280;36154;51.674;7.824;2024-03-02T09:35:02;99489.25;;;19.05;41.54
48872;BME280;36154;51.674;7.824;2024-03-02T09:37:27;99488.16;;;19.11;41.57
48872;BME280;36154;51.674;7.824;2024-03-02T09:39:54;99491.38;;;19.16;41.82
48872;BME280;36154;51.674;7.824;2024-03-02T09:42:19;99486.94;;;19.19;41.67
48872;BME280;36154;51.674;7.824;2024-03-02T09:44:45;99486.69;;;19.26;42.00
48872;BME280;36154;51.674;7.824;2024-03-02T09:47:10;99476.22;;;19.29;42.18
48872;BME280;36154;51.674;7.824;2024-03-02T09:49:35;99482.09;;;19.32;42.17
48872;BME280;36154;51.674;7.824;2024-03-02T09:52:03;99472.47;;;19.36;42.37
48872;BME280;36154;51.674;7.824;2024-03-02T09:54:30;99477.50;;;19.39;42.49
48872;BME280;36154;51.674;7.824;2024-03-02T09:56:55;99466.22;;;19.42;42.40
48872;BME280;36154;51.674;7.824;2024-03-02T09:59:20;99475.56;;;19.44;42.31
48872;BME280;36154;51.674;7.824;2024-03-02T10:02:14;99469.44;;;19.47;42.69
48872;BME280;36154;51.674;7.824;2024-03-02T10:04:40;99470.16;;;19.50;42.59
48872;BME280;36154;51.674;7.824;2024-03-02T10:09:33;99473.38;;;19.55;42.71
48872;BME280;36154;51.674;7.824;2024-03-02T10:12:04;99469.91;;;19.56;42.91
48872;BME280;36154;51.674;7.824;2024-03-02T10:14:30;99472.34;;;19.60;42.76
48872;BME280;36154;51.674;7.824;2024-03-02T10:17:01;99467.94;;;19.62;42.87
48872;BME280;36154;51.674;7.824;2024-03-02T10:19:27;99476.50;;;19.64;42.83
48872;BME280;36154;51.674;7.824;2024-03-02T10:21:57;99466.03;;;19.67;43.68
48872;BME280;36154;51.674;7.824;2024-03-02T10:24:23;99469.38;;;19.69;44.38
48872;BME280;36154;51.674;7.824;2024-03-02T10:26:49;99459.81;;;19.71;44.82
48872;BME280;36154;51.674;7.824;2024-03-02T10:29:15;99462.25;;;19.74;45.26
48872;BME280;36154;51.674;7.824;2024-03-02T10:31:42;99470.78;;;19.76;45.96
48872;BME280;36154;51.674;7.824;2024-03-02T10:34:09;99468.13;;;19.78;46.09
48872;BME280;36154;51.674;7.824;2024-03-02T10:36:35;99472.34;;;19.80;46.42
48872;BME280;36154;51.674;7.824;2024-03-02T10:39:02;99474.00;;;19.81;46.04
48872;BME280;36154;51.674;7.824;2024-03-02T10:41:32;99468.69;;;19.84;46.17
48872;BME280;36154;51.674;7.824;2024-03-02T10:43:57;99465.22;;;19.85;46.22
48872;BME280;36154;51.674;7.824;2024-03-02T10:46:35;99459.13;;;19.86;46.10
48872;BME280;36154;51.674;7.824;2024-03-02T10:49:02;99455.63;;;19.87;45.98
48872;BME280;36154;51.674;7.824;2024-03-02T10:51:31;99459.00;;;19.89;46.04
48872;BME280;36154;51.674;7.824;2024-03-02T10:53:58;99454.63;;;19.91;46.69
48872;BME280;36154;51.674;7.824;2024-03-02T10:56:43;99457.09;;;19.93;47.13
48872;BME280;36154;51.674;7.824;2024-03-02T10:59:23;99453.56;;;19.96;47.18
48872;BME280;36154;51.674;7.824;2024-03-02T11:01:50;99458.66;;;19.97;46.02
48872;BME280;36154;51.674;7.824;2024-03-02T11:04:18;99452.66;;;19.97;44.86
48872;BME280;36154;51.674;7.824;2024-03-02T11:06:48;99454.31;;;19.98;43.49
48872;BME280;36154;51.674;7.824;2024-03-02T11:09:14;99445.66;;;19.99;43.21
48872;BME280;36154;51.674;7.824;2024-03-02T11:11:42;99456.84;;;19.99;42.63
48872;BME280;36154;51.674;7.824;2024-03-02T11:14:13;99455.06;;;20.00;42.14
48872;BME280;36154;51.674;7.824;2024-03-02T11:16:41;99454.19;;;20.01;41.74
48872;BME280;36154;51.674;7.824;2024-03-02T11:19:09;99449.00;;;20.01;42.22
48872;BME280;36154;51.674;7.824;2024-03-02T11:21:35;99447.19;;;20.03;43.46
48872;BME280;36154;51.674;7.824;2024-03-02T11:26:51;99447.97;;;20.05;42.42
48872;BME280;36154;51.674;7.824;2024-03-02T11:32:05;99450.63;;;20.03;41.06
48872;BME280;36154;51.674;7.824;2024-03-02T11:34:34;99452.28;;;20.04;40.77
48872;BME280;36154;51.674;7.824;2024-03-02T11:37:03;99443.69;;;20.04;40.87
48872;BME280;36154;51.674;7.824;2024-03-02T11:39:30;99446.50;;;19.99;39.13
48872;BME280;36154;51.674;7.824;2024-03-02T11:41:56;99439.09;;;19.91;38.65
48872;BME280;36154;51.674;7.824;2024-03-02T11:44:22;99435.84;;;19.86;39.82
48872;BME280;36154;51.674;7.824;2024-03-02T11:47:06;99442.84;;;19.84;40.89
48872;BME280;36154;51.674;7.824;2024-03-02T11:49:40;99432.50;;;19.84;40.26
48872;BME280;36154;51.674;7.824;2024-03-02T11:52:07;99429.88;;;19.86;40.23
48872;BME280;36154;51.674;7.824;2024-03-02T11:54:33;99430.69;;;19.86;40.42
48872;BME280;36154;51.674;7.824;2024-03-02T11:57:03;99422.88;;;19.88;40.82
48872;BME280;36154;51.674;7.824;2024-03-02T11:59:29;99423.59;;;19.91;41.11
48872;BME280;36154;51.674;7.824;2024-03-02T12:01:55;99427.84;;;19.92;40.96
48872;BME280;36154;51.674;7.824;2024-03-02T12:04:21;99419.94;;;19.96;41.62
48872;BME280;36154;51.674;7.824;2024-03-02T12:06:54;99425.88;;;19.98;41.49
48872;BME280;36154;51.674;7.824;2024-03-02T12:09:20;99427.44;;;20.02;42.01
48872;BME280;36154;51.674;7.824;2024-03-02T12:11:46;99419.53;;;20.05;42.63
48872;BME280;36154;51.674;7.824;2024-03-02T12:14:11;99421.06;;;20.09;42.44
48872;BME280;36154;51.674;7.824;2024-03-02T12:16:38;99419.25;;;20.11;42.44
48872;BME280;36154;51.674;7.824;2024-03-02T12:19:05;99419.09;;;20.14;42.71
48872;BME280;36154;51.674;7.824;2024-03-02T12:21:30;99406.94;;;20.16;42.69
48872;BME280;36154;51.674;7.824;2024-03-02T12:23:55;99418.03;;;20.18;42.55
48872;BME280;36154;51.674;7.824;2024-03-02T12:26:24;99413.66;;;20.20;42.43
48872;BME280;36154;51.674;7.824;2024-03-02T12:28:50;99417.00;;;20.22;42.19
48872;BME280;36154;51.674;7.824;2024-03-02T12:31:15;99424.63;;;20.25;42.16
48872;BME280;36154;51.674;7.824;2024-03-02T12:33:41;99411.53;;;20.28;42.27
48872;BME280;36154;51.674;7.824;2024-03-02T12:36:09;99399.38;;;20.30;42.34
48872;BME280;36154;51.674;7.824;2024-03-02T12:38:37;99406.06;;;20.35;42.36
48872;BME280;36154;51.674;7.824;2024-03-02T12:41:02;99403.31;;;20.38;41.44
48872;BME280;36154;51.674;7.824;2024-03-02T12:43:31;99403.25;;;20.39;39.98
48872;BME280;36154;51.674;7.824;2024-03-02T12:45:57;99404.00;;;20.41;39.46
48872;BME280;36154;51.674;7.824;2024-03-02T12:48:22;99398.78;;;20.43;38.69
48872;BME280;36154;51.674;7.824;2024-03-02T12:50:48;99402.13;;;20.45;38.75
48872;BME280;36154;51.674;7.824;2024-03-02T12:53:15;99390.81;;;20.47;39.43
48872;BME280;36154;51.674;7.824;2024-03-02T12:55:41;99395.00;;;20.50;40.11
48872;BME280;36154;51.674;7.824;2024-03-02T12:58:06;99388.84;;;20.53;40.75
48872;BME280;36154;51.674;7.824;2024-03-02T13:00:32;99389.53;;;20.56;41.09
48872;BME280;36154;51.674;7.824;2024-03-02T13:03:00;99388.50;;;20.60;41.55
48872;BME280;36154;51.674;7.824;2024-03-02T13:05:31;99385.72;;;20.63;42.20
48872;BME280;36154;51.674;7.824;2024-03-02T13:07:58;99378.75;;;20.65;42.29